Time;durP1;ratioP1;P1;durP2;ratioP2;P2;SDS_P1;SDS_P2;PMS_P1;PMS_P2;Temp;Humidity;BMP_temperature;BMP_pressure;BME280_temperature;BME280_humidity;BME280_pressure;Samples;Min_cycle;Max_cycle;Signal;HPM_P1;HPM_P2
2022/02/02 00:07:08;;;;;;;0.00;0.00;;;16.30;31.80;16.50;93920.00;;;;10315257;28;45124;-72
2022/02/02 00:22:42;;;;;;;0.00;0.00;;;16.30;32.00;16.50;93947.00;;;;10313602;28;45902;-72
2022/02/02 00:27:45;;;;;;;0.00;0.00;;;16.30;32.00;16.50;93909.00;;;;10298518;28;46620;-71
2022/02/02 00:37:47;;;;;;;0.00;0.00;;;16.30;32.30;16.50;93916.00;;;;10312952;28;45106;-72
2022/02/02 00:42:50;;;;;;;0.00;0.00;;;16.30;32.00;16.50;93932.00;;;;10296169;28;47482;-72
2022/02/02 00:47:51;;;;;;;0.08;0.00;;;16.40;32.20;16.50;93952.00;;;;10296713;28;48106;-71
2022/02/02 00:52:54;;;;;;;0.10;0.00;;;16.40;32.40;16.50;93944.00;;;;10298624;28;46778;-71
2022/02/02 00:57:54;;;;;;;0.10;0.00;;;16.40;32.00;16.50;93933.00;;;;10296999;28;47557;-72
2022/02/02 01:02:55;;;;;;;0.00;0.00;;;16.40;32.30;16.50;93925.00;;;;10313820;28;46627;-71
2022/02/02 01:08:29;;;;;;;0.00;0.00;;;16.30;32.50;16.40;93923.00;;;;10313447;28;47917;-71
2022/02/02 01:18:27;;;;;;;0.00;0.00;;;16.20;32.50;16.40;93930.00;;;;10313560;28;45175;-71
2022/02/02 01:28:47;;;;;;;0.00;0.00;;;16.30;32.70;16.40;93925.00;;;;10353627;28;45350;-72
2022/02/02 01:33:48;;;;;;;0.00;0.00;;;16.30;32.80;16.40;93893.00;;;;10336465;28;46835;-71
2022/02/02 01:38:51;;;;;;;0.00;0.00;;;16.20;32.80;16.40;93924.00;;;;10354139;28;47721;-72
2022/02/02 01:43:59;;;;;;;0.00;0.00;;;16.30;32.90;16.40;93904.00;;;;10353239;28;47231;-71
2022/02/02 01:49:56;;;;;;;0.20;0.00;;;16.30;33.00;16.40;93886.00;;;;10338158;28;46566;-72
2022/02/02 01:59:40;;;;;;;0.10;0.00;;;16.30;33.30;16.40;93869.00;;;;10352560;28;45417;-72
2022/02/02 02:04:41;;;;;;;0.55;0.10;;;16.20;33.30;16.40;93900.00;;;;10351664;28;46398;-72
2022/02/02 02:09:42;;;;;;;0.00;0.00;;;16.20;33.00;16.40;93887.00;;;;10336274;28;47251;-71
2022/02/02 02:14:51;;;;;;;0.00;0.00;;;16.30;33.40;16.40;93900.00;;;;10352923;28;45168;-71
2022/02/02 02:19:52;;;;;;;0.00;0.00;;;16.30;33.00;16.50;93898.00;;;;10335210;28;46946;-71
2022/02/02 02:24:53;;;;;;;0.00;0.00;;;16.30;33.10;16.50;93888.00;;;;10314820;28;46977;-72
2022/02/02 03:34:38;;;;;;;0.08;0.08;;;16.60;33.70;16.70;93902.00;;;;10372041;28;45482;-71
2022/02/02 04:09:47;;;;;;;0.25;0.10;;;16.70;33.60;16.70;93921.00;;;;10356434;28;46033;-72
2022/02/02 05:54:29;;;;;;;0.30;0.10;;;16.60;33.80;16.70;93942.00;;;;10367644;28;45208;-71
2022/02/02 05:59:32;;;;;;;0.17;0.10;;;16.60;33.90;16.70;93946.00;;;;10356370;28;46455;-71
2022/02/02 06:04:33;;;;;;;0.00;0.00;;;16.60;33.80;16.70;93962.00;;;;10361534;28;46315;-72
2022/02/02 06:09:37;;;;;;;0.43;0.00;;;16.60;33.80;16.60;93974.00;;;;10360700;28;46866;-72
2022/02/02 06:14:39;;;;;;;0.20;0.10;;;16.60;34.00;16.60;93991.00;;;;10360242;28;45259;-72
2022/02/02 06:19:40;;;;;;;0.63;0.08;;;16.50;34.10;16.60;93990.00;;;;10359307;28;46412;-72
2022/02/02 06:24:56;;;;;;;0.17;0.00;;;16.50;34.00;16.60;93986.00;;;;10316008;28;46886;-72
2022/02/02 06:30:03;;;;;;;0.00;0.00;;;16.50;33.90;16.70;93987.00;;;;10302238;28;47303;-72
2022/02/02 06:35:06;;;;;;;0.15;0.00;;;16.60;34.10;16.70;93981.00;;;;10334715;23;45614;-72
2022/02/02 06:40:09;;;;;;;0.20;0.00;;;16.60;34.30;16.70;93997.00;;;;10359673;28;45363;-72
2022/02/02 06:45:12;;;;;;;0.20;0.10;;;16.60;34.40;16.70;94004.00;;;;10346953;28;46272;-72
2022/02/02 06:50:20;;;;;;;0.15;0.10;;;16.60;34.20;16.70;93998.00;;;;10302329;28;47453;-72
2022/02/02 06:55:29;;;;;;;0.30;0.08;;;16.60;34.40;16.70;94003.00;;;;10316317;28;45197;-72
2022/02/02 07:06:20;;;;;;;0.32;0.15;;;16.70;34.60;16.70;94030.00;;;;10317721;28;45142;-72
2022/02/02 07:11:43;;;;;;;0.00;0.00;;;16.70;34.80;16.70;94045.00;;;;10317189;28;45418;-71
2022/02/02 07:33:12;;;;;;;0.40;0.10;;;16.70;35.30;16.70;94029.00;;;;10359345;28;45282;-72
2022/02/02 07:38:16;;;;;;;0.73;0.20;;;16.60;34.60;16.70;94047.00;;;;10357939;28;46432;-72
2022/02/02 07:43:29;;;;;;;0.65;0.30;;;16.60;34.70;16.70;94064.00;;;;10357722;28;45447;-72
2022/02/02 07:48:34;;;;;;;1.50;0.20;;;16.70;34.50;16.70;94068.00;;;;10357135;28;46778;-71
2022/02/02 07:53:45;;;;;;;1.48;0.20;;;16.60;34.70;16.70;94075.00;;;;10357524;28;45631;-72
2022/02/02 07:58:49;;;;;;;0.50;0.20;;;16.60;34.70;16.70;94048.00;;;;10341353;28;47160;-72
2022/02/02 08:03:54;;;;;;;1.27;0.20;;;16.60;34.80;16.70;94087.00;;;;10356690;28;45257;-71
2022/02/02 08:08:55;;;;;;;0.35;0.15;;;16.60;34.80;16.60;94096.00;;;;10358894;28;45628;-72
2022/02/02 08:13:59;;;;;;;0.47;0.20;;;16.50;34.80;16.60;94110.00;;;;10339971;28;46890;-71
2022/02/02 08:19:00;;;;;;;0.40;0.20;;;16.50;34.90;16.60;94102.00;;;;10340475;28;46917;-72
2022/02/02 08:24:01;;;;;;;0.93;0.28;;;16.50;34.90;16.60;94094.00;;;;10339099;28;47239;-72
2022/02/02 08:29:02;;;;;;;0.65;0.20;;;16.60;35.00;16.60;94105.00;;;;10356368;28;45191;-72
2022/02/02 08:34:09;;;;;;;1.30;0.10;;;16.50;34.60;16.70;94116.00;;;;10331683;28;48311;-72
2022/02/02 08:39:37;;;;;;;1.25;0.10;;;16.60;34.80;16.70;94133.00;;;;10347194;28;45400;-70
2022/02/02 08:44:47;;;;;;;1.58;0.25;;;16.60;34.90;16.70;94140.00;;;;10317481;28;48251;-71
2022/02/02 08:49:55;;;;;;;1.00;0.20;;;16.70;34.60;16.70;94116.00;;;;10339584;28;47312;-72
2022/02/02 08:55:01;;;;;;;0.57;0.30;;;16.70;34.40;16.70;94101.00;;;;10338929;28;48111;-71
2022/02/02 09:00:10;;;;;;;0.27;0.10;;;16.70;34.50;16.80;94131.00;;;;10339043;28;47174;-73
2022/02/02 09:05:20;;;;;;;0.20;0.00;;;16.80;34.40;16.80;94131.00;;;;10338864;28;47230;-72
2022/02/02 09:21:54;;;;;;;0.77;0.20;;;16.80;34.50;16.80;94144.00;;;;10335135;28;46202;-72
2022/02/02 09:36:56;;;;;;;0.38;0.10;;;16.90;34.50;16.90;94159.00;;;;10344387;28;45186;-72
2022/02/02 09:42:04;;;;;;;3.58;0.20;;;16.90;34.50;16.90;94190.00;;;;10321294;28;45444;-72
2022/02/02 09:52:13;;;;;;;0.15;0.10;;;16.90;34.40;16.90;94189.00;;;;10306606;28;46193;-72
2022/02/02 10:18:44;;;;;;;0.53;0.20;;;17.00;34.50;17.00;94191.00;;;;10319296;28;45162;-72
2022/02/02 10:23:48;;;;;;;0.70;0.15;;;17.00;34.50;17.00;94195.00;;;;10335452;28;47174;-72
2022/02/02 10:28:50;;;;;;;0.68;0.13;;;17.10;34.70;17.00;94208.00;;;;10343131;28;47381;-72
2022/02/02 10:34:12;;;;;;;0.32;0.10;;;17.10;34.70;17.10;94214.00;;;;10342538;28;47172;-72
2022/02/02 10:39:17;;;;;;;0.03;0.03;;;17.10;34.60;17.10;94221.00;;;;10358932;28;48085;-72
2022/02/02 10:44:38;;;;;;;0.15;0.10;;;17.10;34.80;17.10;94225.00;;;;10358383;28;46965;-72
2022/02/02 10:55:33;;;;;;;0.50;0.20;;;17.20;35.00;17.10;94221.00;;;;10358846;28;45232;-73
2022/02/02 11:00:52;;;;;;;0.00;0.00;;;17.20;35.10;17.20;94234.00;;;;10358891;28;45334;-72
2022/02/02 11:11:20;;;;;;;0.10;0.00;;;17.30;35.00;17.20;94259.00;;;;10361220;28;45126;-72
2022/02/02 11:16:30;;;;;;;0.20;0.00;;;17.30;34.80;17.20;94256.00;;;;10358220;28;46959;-73
2022/02/02 11:21:34;;;;;;;0.00;0.00;;;17.30;34.70;17.20;94218.00;;;;10349830;28;46292;-73
2022/02/02 11:26:42;;;;;;;0.10;0.10;;;17.30;34.60;17.20;94243.00;;;;10316697;28;46664;-73
2022/02/02 11:32:07;;;;;;;0.10;0.10;;;17.30;34.60;17.20;94239.00;;;;10317251;28;46589;-79
2022/02/02 11:37:12;;;;;;;0.20;0.00;;;17.30;34.60;17.20;94222.00;;;;10299552;28;46956;-73
2022/02/02 11:42:47;;;;;;;0.13;0.10;;;17.30;35.10;17.20;94240.00;;;;10300415;28;47293;-73
2022/02/02 11:47:49;;;;;;;0.17;0.00;;;17.30;34.30;17.20;94251.00;;;;10337596;28;47000;-73
2022/02/02 11:52:50;;;;;;;0.00;0.00;;;17.30;34.30;17.20;94259.00;;;;10315163;28;47782;-75
2022/02/02 11:58:12;;;;;;;0.30;0.10;;;17.30;34.70;17.20;94259.00;;;;10314104;28;45442;-72
2022/02/02 12:03:32;;;;;;;0.60;0.22;;;17.30;34.50;17.20;94256.00;;;;10313481;28;45330;-72
2022/02/02 12:19:36;;;;;;;0.38;0.03;;;17.30;34.40;17.20;94233.00;;;;10316176;28;45696;-73
2022/02/02 12:56:34;;;;;;;0.00;0.00;;;17.20;34.60;17.10;94213.00;;;;10239343;28;45428;-72
2022/02/02 13:01:36;;;;;;;0.00;0.00;;;17.20;34.70;17.10;94220.00;;;;10313956;28;47802;-72
2022/02/02 13:06:40;;;;;;;0.45;0.10;;;17.20;34.70;17.10;94213.00;;;;10312869;28;48269;-73
2022/02/02 13:11:42;;;;;;;0.00;0.00;;;17.30;34.90;17.10;94209.00;;;;10313510;28;47916;-73
2022/02/02 13:16:42;;;;;;;0.00;0.00;;;17.20;34.90;17.10;94228.00;;;;10301673;28;45347;-73
2022/02/02 13:21:52;;;;;;;0.15;0.10;;;17.30;34.80;17.10;94214.00;;;;10339492;28;47321;-72
2022/02/02 13:27:15;;;;;;;0.10;0.00;;;17.20;34.80;17.20;94241.00;;;;10353546;28;45355;-72
2022/02/02 13:32:22;;;;;;;0.03;0.00;;;17.20;34.80;17.10;94236.00;;;;10339215;28;46751;-72
2022/02/02 13:53:06;;;;;;;0.03;0.00;;;17.30;35.00;17.20;94254.00;;;;10353278;28;46431;-72
2022/02/02 14:35:17;;;;;;;0.00;0.00;;;17.50;36.10;17.40;94268.00;;;;10358855;28;45278;-72
2022/02/02 14:40:36;;;;;;;0.13;0.00;;;17.50;36.20;17.40;94273.00;;;;10341493;28;48213;-72
2022/02/02 14:45:41;;;;;;;0.55;0.03;;;17.50;36.20;17.50;94287.00;;;;10307183;28;45639;-72
2022/02/02 14:51:04;;;;;;;0.00;0.00;;;17.50;36.20;17.50;94261.00;;;;10358613;28;47341;-72
2022/02/02 15:32:57;;;;;;;0.10;0.10;;;17.60;35.50;17.50;94317.00;;;;10356433;28;45166;-73
2022/02/02 15:38:16;;;;;;;0.17;0.17;;;17.60;35.40;17.50;94318.00;;;;10353582;28;45553;-72
2022/02/02 15:59:10;;;;;;;0.70;0.70;;;17.60;35.40;17.40;94342.00;;;;10356558;28;45609;-72
2022/02/02 16:04:15;;;;;;;0.50;0.50;;;17.60;35.40;17.50;94332.00;;;;10338227;28;47334;-78
2022/02/02 16:09:29;;;;;;;0.50;0.30;;;17.60;35.40;17.50;94328.00;;;;10341853;28;47139;-74
2022/02/02 16:14:34;;;;;;;2.25;0.40;;;17.60;35.90;17.50;94348.00;;;;10356098;28;45194;-75
2022/02/02 16:24:39;;;;;;;2.67;1.30;;;17.60;35.70;17.50;94344.00;;;;10356313;28;47086;-75
2022/02/02 16:40:43;;;;;;;1.13;0.40;;;17.50;37.30;17.50;94365.00;;;;10357337;28;45184;-76
2022/02/02 16:45:52;;;;;;;0.75;0.30;;;17.50;37.40;17.50;94373.00;;;;10340240;28;45227;-77
2022/02/02 16:50:55;;;;;;;0.95;0.30;;;17.50;37.90;17.40;94379.00;;;;10295718;28;47135;-78
2022/02/02 17:38:46;;;;;;;5.38;0.47;;;17.50;37.60;17.40;94414.00;;;;10354692;28;1065027;-79
2022/02/02 18:16:30;;;;;;;0.95;0.70;;;17.70;36.60;17.90;94457.00;;;;10342167;28;45117;-79
2022/02/02 18:21:19;;;;;;;0.90;0.60;;;17.80;36.60;17.90;94429.00;;;;10357145;28;45513;-80
2022/02/02 18:26:30;;;;;;;0.43;0.40;;;17.70;36.40;17.90;94443.00;;;;10374831;28;47066;-80
2022/02/02 18:37:03;;;;;;;1.20;0.70;;;17.70;36.30;17.90;94425.00;;;;10342318;28;46164;-81
2022/02/02 18:47:46;;;;;;;0.77;0.73;;;17.80;36.30;18.00;94444.00;;;;10333011;28;45145;-81
2022/02/02 18:58:04;;;;;;;0.80;0.70;;;17.90;36.30;18.00;94437.00;;;;10331792;28;45152;-80
2022/02/02 19:40:03;;;;;;;1.10;0.63;;;17.80;36.10;18.00;94460.00;;;;10371814;28;45161;-81
2022/02/02 20:11:39;;;;;;;2.97;1.42;;;17.80;36.00;17.90;94480.00;;;;10371256;28;45182;-80
2022/02/02 20:16:40;;;;;;;3.00;1.10;;;17.80;36.00;17.90;94478.00;;;;10368909;28;46318;-82
2022/02/02 20:21:50;;;;;;;2.50;1.00;;;17.80;35.90;17.90;94476.00;;;;10354069;28;47078;-80
2022/02/02 20:26:50;;;;;;;3.28;1.00;;;17.80;35.90;17.90;94487.00;;;;10331010;28;47209;-80
2022/02/02 20:31:51;;;;;;;1.92;0.90;;;17.80;35.90;17.90;94461.00;;;;10329013;28;47175;-81
2022/02/02 20:36:52;;;;;;;2.38;0.70;;;17.70;35.80;17.90;94478.00;;;;10328101;28;47208;-80
2022/02/02 20:41:54;;;;;;;1.20;0.47;;;17.70;36.00;17.90;94485.00;;;;10328874;28;47048;-80
2022/02/02 21:08:24;;;;;;;0.00;0.00;;;17.70;36.10;17.90;94461.00;;;;10328291;28;45868;-80
2022/02/02 21:13:45;;;;;;;0.20;0.03;;;17.70;36.10;17.80;94483.00;;;;10327694;28;45288;-81
2022/02/02 21:18:53;;;;;;;0.28;0.10;;;17.70;36.20;17.90;94467.00;;;;10354878;28;47028;-80
2022/02/02 21:29:01;;;;;;;0.00;0.00;;;17.60;36.20;17.80;94449.00;;;;10326270;28;45095;-81
2022/02/02 21:34:02;;;;;;;0.00;0.00;;;17.60;36.20;17.80;94450.00;;;;10310728;28;47703;-80
2022/02/02 21:39:08;;;;;;;0.10;0.00;;;17.60;36.20;17.80;94456.00;;;;10324984;28;48165;-80
2022/02/02 21:44:09;;;;;;;0.10;0.10;;;17.60;36.10;17.80;94445.00;;;;10327405;28;48130;-78
2022/02/02 21:49:17;;;;;;;0.20;0.00;;;17.60;36.20;17.60;94459.00;;;;10317839;28;45185;-79
2022/02/02 21:54:18;;;;;;;0.13;0.13;;;17.50;36.20;17.70;94436.00;;;;10317548;28;47207;-80
2022/02/02 21:59:18;;;;;;;0.00;0.00;;;17.60;36.30;17.80;94433.00;;;;10316416;28;47143;-78
2022/02/02 22:04:19;;;;;;;0.00;0.00;;;17.50;36.20;17.70;94438.00;;;;10316058;28;47397;-79
2022/02/02 22:09:20;;;;;;;0.10;0.00;;;17.50;36.20;17.70;94444.00;;;;10316763;28;47299;-78
2022/02/02 22:14:22;;;;;;;0.00;0.00;;;17.50;36.20;17.70;94461.00;;;;10316598;28;47370;-79
2022/02/02 22:19:24;;;;;;;0.05;0.05;;;17.50;36.20;17.70;94468.00;;;;10316447;28;48243;-79
2022/02/02 22:24:25;;;;;;;0.10;0.10;;;17.50;36.30;17.70;94464.00;;;;10316573;28;48003;-79
2022/02/02 22:29:25;;;;;;;0.10;0.10;;;17.50;36.30;17.70;94466.00;;;;10315594;28;47425;-79
2022/02/02 22:34:26;;;;;;;0.00;0.00;;;17.50;36.40;17.60;94445.00;;;;10315756;28;46977;-78
2022/02/02 22:39:27;;;;;;;0.10;0.10;;;17.40;36.30;17.60;94476.00;;;;10315654;28;47030;-78
2022/02/02 22:44:30;;;;;;;0.00;0.00;;;17.40;36.50;17.60;94414.00;;;;10306124;28;47341;-79
2022/02/02 22:49:33;;;;;;;0.10;0.10;;;17.40;36.50;17.60;94440.00;;;;10323367;28;47181;-79
2022/02/02 22:54:34;;;;;;;0.00;0.00;;;17.40;36.70;17.60;94451.00;;;;10322212;28;47900;-81
2022/02/02 22:59:37;;;;;;;0.10;0.10;;;17.40;36.80;17.60;94462.00;;;;10322390;28;47164;-78
2022/02/02 23:04:37;;;;;;;0.00;0.00;;;17.30;36.60;17.60;94470.00;;;;10304975;28;47777;-79
2022/02/02 23:09:39;;;;;;;0.10;0.10;;;17.40;36.80;17.60;94447.00;;;;10322174;28;45570;-81
2022/02/02 23:14:42;;;;;;;0.17;0.17;;;17.40;36.80;17.50;94459.00;;;;10321526;28;47326;-79
2022/02/02 23:19:46;;;;;;;0.20;0.10;;;17.40;36.80;17.50;94477.00;;;;10321263;28;45224;-79
2022/02/02 23:24:50;;;;;;;0.00;0.00;;;17.30;36.80;17.50;94473.00;;;;10322021;28;45458;-78
2022/02/02 23:29:55;;;;;;;0.08;0.08;;;17.30;36.80;17.50;94476.00;;;;10321676;28;47133;-79
2022/02/02 23:34:56;;;;;;;0.00;0.00;;;17.30;36.80;17.50;94498.00;;;;10321409;28;45705;-79
2022/02/02 23:39:56;;;;;;;0.00;0.00;;;17.30;36.80;17.50;94491.00;;;;10321527;28;46849;-79
2022/02/02 23:44:57;;;;;;;0.00;0.00;;;17.30;36.90;17.50;94498.00;;;;10320590;28;47149;-81
2022/02/02 23:50:02;;;;;;;0.03;0.03;;;17.20;36.60;17.50;94466.00;;;;10320777;28;47198;-79
2022/02/02 23:55:07;;;;;;;0.10;0.10;;;17.20;36.70;17.50;94482.00;;;;10319119;28;47098;-79
